Terminal Aerodrome Forecast
Issued by NWS Sterling, VA

Home | Current Version | Previous Version | Text Only | Print | Product List | Glossary On
Versions: 1 2 3 4 5 6 7 8 9 10 11 12 13 14 15 16 17 18 19 20 21 22 23 24 25 26 27
000
FTUS41 KLWX 202300
TAFIAD
TAF
KIAD 202334Z 2100/2206 18005KT P6SM VCSH OVC040
      TEMPO 2101/2103 -SHRA
     FM211100 00000KT P6SM BKN050
     FM212100 30006KT P6SM BKN035=

USA.gov is the U.S. government's official web portal to all federal, state and local government web resources and services.